Time;durP1;ratioP1;P1;durP2;ratioP2;P2;SDS_P1;SDS_P2;PMS_P1;PMS_P2;Temp;Humidity;BMP_temperature;BMP_pressure;BME280_temperature;BME280_humidity;BME280_pressure;Samples;Min_cycle;Max_cycle;Signal;HPM_P1;HPM_P2
2022/04/07 00:00:13;;;;;;;8.98;7.25;;;;;;;8.79;100.00;99058.88;7390269;19;20029;-59
2022/04/07 00:02:42;;;;;;;9.75;7.90;;;;;;;8.66;100.00;99061.47;7389529;19;20040;-59
2022/04/07 00:05:11;;;;;;;10.77;8.55;;;;;;;8.59;100.00;99049.75;7387549;19;20078;-59
2022/04/07 00:07:40;;;;;;;9.82;8.52;;;;;;;8.56;100.00;99052.56;7388924;19;20029;-58
2022/04/07 00:10:11;;;;;;;10.35;8.32;;;;;;;8.51;100.00;99044.16;7389393;19;20017;-59
2022/04/07 00:12:42;;;;;;;10.52;8.20;;;;;;;8.56;100.00;99042.94;7390489;19;20334;-59
2022/04/07 00:15:12;;;;;;;8.80;7.60;;;;;;;8.60;100.00;99049.63;7387482;19;20039;-58
2022/04/07 00:17:41;;;;;;;10.32;7.53;;;;;;;8.62;100.00;99026.03;7388031;19;20356;-56
2022/04/07 00:20:11;;;;;;;11.63;7.88;;;;;;;8.63;100.00;99020.72;7389031;19;20011;-59
2022/04/07 00:22:41;;;;;;;7.53;6.72;;;;;;;8.66;100.00;99032.75;7396592;19;20103;-55
2022/04/07 00:25:13;;;;;;;8.85;7.50;;;;;;;8.68;100.00;99028.25;7394080;19;20010;-59
2022/04/07 00:27:42;;;;;;;11.90;8.25;;;;;;;8.60;100.00;99015.69;7397085;19;20018;-58
2022/04/07 00:30:15;;;;;;;10.25;7.90;;;;;;;8.49;100.00;99012.94;7395618;19;20013;-59
2022/04/07 00:32:45;;;;;;;9.80;8.45;;;;;;;8.49;100.00;99002.50;7395896;19;20018;-60
2022/04/07 00:35:14;;;;;;;11.63;8.23;;;;;;;8.51;100.00;99011.09;7393075;19;20014;-59
2022/04/07 00:37:43;;;;;;;10.43;8.40;;;;;;;8.47;100.00;99002.59;7395710;19;20014;-59
2022/04/07 00:40:15;;;;;;;12.23;8.50;;;;;;;8.42;100.00;98999.41;7394563;19;20029;-59
2022/04/07 00:42:47;;;;;;;11.23;8.80;;;;;;;8.44;100.00;98994.97;7395769;19;20022;-60
2022/04/07 00:45:17;;;;;;;9.93;8.05;;;;;;;8.44;100.00;98994.13;7392725;19;20022;-58
2022/04/07 00:47:47;;;;;;;13.57;8.95;;;;;;;8.44;100.00;98986.28;7394928;19;20015;-58
2022/04/07 00:50:18;;;;;;;12.30;8.20;;;;;;;8.47;100.00;98980.91;7395268;19;20375;-55
2022/04/07 00:52:52;;;;;;;12.35;7.82;;;;;;;8.46;100.00;98980.03;7395129;19;20014;-55
2022/04/07 00:55:25;;;;;;;10.80;7.35;;;;;;;8.47;100.00;98975.69;7392259;19;20014;-54
2022/04/07 00:57:54;;;;;;;7.85;6.60;;;;;;;8.50;100.00;98967.63;7395882;19;20021;-56
2022/04/07 01:00:23;;;;;;;11.90;7.40;;;;;;;8.53;100.00;98950.94;7393787;19;20027;-57
2022/04/07 01:02:52;;;;;;;9.65;6.20;;;;;;;8.55;100.00;98946.44;7395978;19;20022;-52
2022/04/07 01:05:23;;;;;;;9.77;5.80;;;;;;;8.60;100.00;98953.03;7392226;19;20385;-59
2022/04/07 01:07:52;;;;;;;9.77;5.57;;;;;;;8.57;100.00;98942.81;7394823;19;20015;-56
2022/04/07 01:10:25;;;;;;;13.00;5.65;;;;;;;8.59;100.00;98947.91;7393561;19;20022;-57
2022/04/07 01:12:54;;;;;;;12.73;4.80;;;;;;;8.59;100.00;98945.31;7394851;19;20031;-55
2022/04/07 01:15:23;;;;;;;9.05;4.30;;;;;;;8.56;100.00;98935.06;7390221;19;20031;-59
2022/04/07 01:17:51;;;;;;;7.20;3.67;;;;;;;8.55;100.00;98934.22;7394571;19;20017;-59
2022/04/07 01:20:20;;;;;;;8.07;3.70;;;;;;;8.55;100.00;98936.00;7394387;19;20471;-57
2022/04/07 01:22:51;;;;;;;8.85;3.75;;;;;;;8.52;100.00;98936.22;7394606;19;20014;-57
2022/04/07 01:25:23;;;;;;;10.70;3.88;;;;;;;8.51;100.00;98931.91;7391964;19;20078;-54
2022/04/07 01:27:52;;;;;;;9.30;3.90;;;;;;;8.38;100.00;98937.09;7394093;19;20018;-56
2022/04/07 01:30:21;;;;;;;12.52;4.57;;;;;;;8.24;100.00;98925.78;7393401;19;20019;-57
2022/04/07 01:32:53;;;;;;;10.43;4.40;;;;;;;8.12;100.00;98937.00;7393732;19;20687;-58
2022/04/07 01:35:23;;;;;;;11.82;4.80;;;;;;;8.00;100.00;98943.84;7391556;19;20120;-59
2022/04/07 01:37:54;;;;;;;11.40;5.22;;;;;;;7.96;100.00;98934.53;7393337;19;20022;-55
2022/04/07 01:40:36;;;;;;;12.75;6.05;;;;;;;7.94;100.00;98931.22;7392823;19;20526;-58
2022/04/07 01:43:07;;;;;;;13.15;5.05;;;;;;;7.91;100.00;98923.59;7393478;19;20356;-59
2022/04/07 01:45:37;;;;;;;12.70;5.18;;;;;;;7.92;100.00;98910.44;7392852;19;20022;-58
2022/04/07 01:48:06;;;;;;;17.20;5.60;;;;;;;7.91;100.00;98897.50;7393590;19;20053;-60
2022/04/07 01:50:36;;;;;;;13.35;5.68;;;;;;;7.86;100.00;98896.97;7392610;19;20022;-59
2022/04/07 01:53:07;;;;;;;14.15;5.93;;;;;;;7.84;100.00;98898.81;7388065;19;20641;-60
2022/04/07 01:56:08;;;;;;;10.75;5.30;;;;;;;7.86;100.00;98887.34;7387882;19;20018;-60
2022/04/07 01:58:40;;;;;;;12.13;5.53;;;;;;;7.86;100.00;98887.34;7393578;19;20025;-55
2022/04/07 02:01:09;;;;;;;12.27;5.78;;;;;;;7.86;100.00;98882.13;7392769;19;20471;-55
2022/04/07 02:03:38;;;;;;;10.55;5.50;;;;;;;7.89;100.00;98873.28;7392787;19;20019;-59
2022/04/07 02:06:15;;;;;;;9.98;5.15;;;;;;;7.93;100.00;98861.72;7393226;19;20348;-53
2022/04/07 02:08:45;;;;;;;12.90;5.15;;;;;;;7.97;100.00;98861.41;7393575;19;20010;-59
2022/04/07 02:11:14;;;;;;;14.75;5.78;;;;;;;7.96;100.00;98846.69;7392447;19;20003;-54
2022/04/07 02:13:46;;;;;;;18.33;6.25;;;;;;;7.90;100.00;98841.91;7392480;19;20037;-55
2022/04/07 02:16:15;;;;;;;14.40;6.03;;;;;;;7.93;100.00;98851.28;7393351;19;20038;-58
2022/04/07 02:18:44;;;;;;;14.65;6.30;;;;;;;7.88;100.00;98841.16;7391501;19;20026;-58
2022/04/07 02:21:13;;;;;;;22.70;6.82;;;;;;;7.87;100.00;98841.28;7391325;19;20025;-58
2022/04/07 02:23:44;;;;;;;15.40;6.28;;;;;;;7.84;100.00;98831.88;7391924;19;20467;-53
2022/04/07 02:26:14;;;;;;;18.00;6.60;;;;;;;7.80;100.00;98831.22;7392547;19;20051;-58
2022/04/07 02:28:46;;;;;;;14.52;7.20;;;;;;;7.85;100.00;98827.47;7391948;19;20022;-58
2022/04/07 02:31:15;;;;;;;13.40;6.63;;;;;;;7.82;100.00;98819.88;7390406;19;20613;-55
2022/04/07 02:33:45;;;;;;;13.68;7.10;;;;;;;7.78;100.00;98804.44;7386211;19;20029;-53
2022/04/07 02:36:17;;;;;;;13.18;6.90;;;;;;;7.81;100.00;98808.59;7392288;19;20074;-56
2022/04/07 02:38:46;;;;;;;12.38;7.32;;;;;;;7.78;100.00;98808.81;7391304;19;20347;-57
2022/04/07 02:41:15;;;;;;;15.65;8.25;;;;;;;7.78;100.00;98791.38;7389984;19;20015;-58
2022/04/07 02:43:48;;;;;;;13.77;8.57;;;;;;;7.79;100.00;98787.84;7390636;19;20018;-57
2022/04/07 02:46:17;;;;;;;20.85;8.85;;;;;;;7.78;100.00;98790.56;7392154;19;20023;-57
2022/04/07 02:48:46;;;;;;;21.20;8.15;;;;;;;7.75;100.00;98794.19;7391703;19;20475;-60
2022/04/07 02:51:15;;;;;;;15.25;8.27;;;;;;;7.74;100.00;98791.69;7391258;19;20006;-59
2022/04/07 02:53:44;;;;;;;16.77;7.60;;;;;;;7.76;100.00;98792.41;7390868;19;20112;-57
2022/04/07 02:56:12;;;;;;;14.88;7.30;;;;;;;7.73;100.00;98785.63;7391194;19;20047;-59
2022/04/07 02:58:41;;;;;;;14.65;7.35;;;;;;;7.72;100.00;98764.88;7391592;19;20764;-52
2022/04/07 03:01:14;;;;;;;17.48;7.60;;;;;;;7.78;100.00;98777.53;7391663;19;20018;-56
2022/04/07 03:03:43;;;;;;;19.08;7.07;;;;;;;7.79;100.00;98761.78;7390354;19;20372;-58
2022/04/07 03:06:12;;;;;;;14.75;6.88;;;;;;;7.84;100.00;98758.00;7391527;19;20025;-57
2022/04/07 03:08:41;;;;;;;18.45;7.13;;;;;;;7.86;100.00;98743.13;7391450;19;20010;-53
2022/04/07 03:11:10;;;;;;;15.02;6.65;;;;;;;7.88;100.00;98755.13;7390554;19;20026;-60
2022/04/07 03:13:39;;;;;;;20.75;6.88;;;;;;;7.95;100.00;98740.72;7390566;19;20103;-57
2022/04/07 03:16:09;;;;;;;19.15;6.45;;;;;;;7.96;100.00;98745.00;7391454;19;20475;-60
2022/04/07 03:18:40;;;;;;;23.52;7.25;;;;;;;8.05;100.00;98742.72;7391417;19;20018;-56
2022/04/07 03:21:09;;;;;;;21.77;6.72;;;;;;;8.03;100.00;98745.41;7389285;19;20018;-58
2022/04/07 03:23:38;;;;;;;18.35;5.90;;;;;;;8.06;100.00;98734.78;7390775;19;20604;-59
2022/04/07 03:26:07;;;;;;;18.63;6.15;;;;;;;8.01;100.00;98718.63;7391684;19;20049;-53
2022/04/07 03:28:36;;;;;;;18.25;5.75;;;;;;;8.05;100.00;98719.25;7393048;19;20471;-58
2022/04/07 03:31:05;;;;;;;18.00;5.75;;;;;;;8.06;100.00;98713.09;7387944;19;20018;-58
2022/04/07 03:33:34;;;;;;;20.25;5.70;;;;;;;8.05;100.00;98711.41;7388792;19;20791;-57
2022/04/07 03:36:06;;;;;;;17.85;4.95;;;;;;;8.02;100.00;98699.41;7392603;19;20017;-60
2022/04/07 03:38:35;;;;;;;20.67;5.20;;;;;;;8.11;100.00;98701.41;7396474;19;20322;-58
2022/04/07 03:41:05;;;;;;;15.40;5.32;;;;;;;8.05;100.00;98699.22;7393240;19;20018;-61
2022/04/07 03:43:34;;;;;;;13.00;4.53;;;;;;;8.09;100.00;98681.56;7394535;19;20014;-58
2022/04/07 03:46:03;;;;;;;16.38;4.75;;;;;;;8.12;100.00;98679.59;7390625;19;20018;-58
2022/04/07 03:48:32;;;;;;;15.73;4.63;;;;;;;8.11;100.00;98672.72;7389993;19;20023;-57
2022/04/07 03:51:01;;;;;;;19.83;5.35;;;;;;;8.03;100.00;98663.75;7389336;19;20014;-59
2022/04/07 03:53:32;;;;;;;20.10;5.88;;;;;;;7.99;100.00;98664.88;7389357;19;20018;-57
2022/04/07 03:56:03;;;;;;;20.65;6.07;;;;;;;7.93;100.00;98650.50;7394227;19;20025;-58
2022/04/07 03:58:32;;;;;;;16.13;6.03;;;;;;;7.91;100.00;98655.00;7396905;19;20182;-57
2022/04/07 04:01:01;;;;;;;18.15;6.78;;;;;;;7.84;100.00;98636.31;7398155;19;20023;-57
2022/04/07 04:03:30;;;;;;;24.80;7.05;;;;;;;7.83;100.00;98634.63;7397508;19;20029;-55
2022/04/07 04:05:59;;;;;;;20.10;7.15;;;;;;;7.83;100.00;98629.44;7397602;19;20505;-56
2022/04/07 04:08:28;;;;;;;17.20;5.65;;;;;;;7.85;100.00;98624.97;7397879;19;20022;-56
2022/04/07 04:10:59;;;;;;;18.73;5.95;;;;;;;7.86;100.00;98610.13;7397452;19;20026;-54
2022/04/07 04:13:29;;;;;;;23.00;6.32;;;;;;;7.87;100.00;98593.56;7396800;19;20026;-58
2022/04/07 04:15:58;;;;;;;16.80;4.97;;;;;;;7.89;100.00;98591.66;7401089;19;20010;-57
2022/04/07 04:18:27;;;;;;;17.50;5.35;;;;;;;7.89;100.00;98576.03;7419308;19;20011;-59
2022/04/07 04:20:56;;;;;;;16.02;5.13;;;;;;;7.92;100.00;98574.06;7398277;19;20022;-58
2022/04/07 04:23:25;;;;;;;18.40;5.10;;;;;;;7.95;100.00;98558.19;7397703;19;20480;-56
2022/04/07 04:25:54;;;;;;;16.67;5.68;;;;;;;7.93;100.00;98567.06;7396585;19;20025;-53
2022/04/07 04:28:25;;;;;;;17.80;5.35;;;;;;;7.94;100.00;98551.28;7397023;19;20022;-55
2022/04/07 04:30:54;;;;;;;15.52;5.07;;;;;;;7.97;100.00;98527.59;7396094;19;20027;-59
2022/04/07 04:33:23;;;;;;;17.73;5.47;;;;;;;8.02;100.00;98510.81;7396523;19;20491;-54
2022/04/07 04:35:52;;;;;;;15.25;5.40;;;;;;;8.02;100.00;98495.16;7396560;19;20086;-57
2022/04/07 04:38:20;;;;;;;14.60;5.05;;;;;;;8.03;100.00;98507.25;7396500;19;20815;-56
2022/04/07 04:40:49;;;;;;;10.98;4.40;;;;;;;8.05;100.00;98498.41;7395539;19;20071;-52
2022/04/07 04:43:18;;;;;;;15.73;4.32;;;;;;;8.03;100.00;98492.44;7393581;19;20014;-58
2022/04/07 04:45:50;;;;;;;15.52;4.20;;;;;;;8.11;100.00;98469.25;7396341;19;20022;-58
2022/04/07 04:48:19;;;;;;;13.57;4.00;;;;;;;8.09;100.00;98471.13;7396563;19;20529;-57
2022/04/07 04:50:48;;;;;;;14.82;4.75;;;;;;;8.16;100.00;98468.09;7396480;19;20022;-57
2022/04/07 04:53:17;;;;;;;18.08;4.28;;;;;;;8.13;100.00;98464.75;7396396;19;20347;-57
2022/04/07 04:55:46;;;;;;;16.73;3.80;;;;;;;8.18;100.00;98453.16;7397063;19;20022;-58
2022/04/07 04:58:15;;;;;;;9.88;3.90;;;;;;;8.21;100.00;98447.69;7396166;19;20030;-58
2022/04/07 05:00:44;;;;;;;11.18;4.13;;;;;;;8.17;100.00;98436.69;7396076;19;20014;-59
2022/04/07 05:03:15;;;;;;;13.50;3.80;;;;;;;8.23;100.00;98438.84;7393092;19;20014;-59
2022/04/07 05:05:45;;;;;;;11.30;3.80;;;;;;;8.22;100.00;98433.72;7396726;19;20007;-58
2022/04/07 05:08:13;;;;;;;14.82;4.15;;;;;;;8.21;100.00;98438.13;7396054;19;20507;-57
2022/04/07 05:10:42;;;;;;;14.15;3.72;;;;;;;8.28;100.00;98423.69;7396025;19;20026;-53
2022/04/07 05:13:11;;;;;;;11.23;3.72;;;;;;;8.26;99.72;98420.34;7395131;19;20014;-60
2022/04/07 05:15:40;;;;;;;9.25;3.50;;;;;;;8.28;100.00;98405.41;7395516;19;20014;-58
2022/04/07 05:18:09;;;;;;;12.68;3.33;;;;;;;8.28;99.56;98404.56;7395235;19;20146;-57
2022/04/07 05:20:40;;;;;;;7.85;3.08;;;;;;;8.19;100.00;98406.09;7395380;19;20022;-58
2022/04/07 05:23:09;;;;;;;7.93;3.17;;;;;;;8.17;100.00;98407.97;7393133;19;20021;-60
2022/04/07 05:25:38;;;;;;;10.18;3.13;;;;;;;8.18;100.00;98394.00;7394806;19;20356;-57
2022/04/07 05:28:07;;;;;;;10.40;2.90;;;;;;;8.18;100.00;98395.75;7394785;19;20021;-58
2022/04/07 05:30:36;;;;;;;7.72;2.90;;;;;;;8.23;99.91;98381.44;7394262;19;20119;-57
2022/04/07 05:33:05;;;;;;;8.25;2.75;;;;;;;8.19;100.00;98372.16;7395061;19;20340;-58
2022/04/07 05:35:34;;;;;;;6.97;3.13;;;;;;;8.20;100.00;98366.00;7394750;19;20015;-54
2022/04/07 05:38:06;;;;;;;9.52;2.72;;;;;;;8.27;99.82;98343.75;7395110;19;20017;-58
2022/04/07 05:40:35;;;;;;;9.00;2.70;;;;;;;8.31;100.00;98342.56;7392954;19;20025;-59
2022/04/07 05:43:05;;;;;;;7.00;3.00;;;;;;;8.21;100.00;98343.34;7387596;19;20022;-56
2022/04/07 05:45:34;;;;;;;7.88;2.72;;;;;;;8.25;100.00;98342.19;7393712;19;20026;-57
2022/04/07 05:48:03;;;;;;;7.68;2.50;;;;;;;8.31;100.00;98321.69;7394896;19;20029;-58
2022/04/07 05:50:32;;;;;;;4.90;2.38;;;;;;;8.29;100.00;98310.53;7395399;19;20025;-60
2022/04/07 05:53:01;;;;;;;5.82;3.20;;;;;;;8.29;100.00;98317.53;7398408;19;20187;-57
2022/04/07 05:55:32;;;;;;;5.45;3.00;;;;;;;8.24;100.00;98317.88;7392224;19;20121;-57
2022/04/07 05:58:04;;;;;;;6.70;2.70;;;;;;;8.24;100.00;98299.63;7394303;19;20011;-59
2022/04/07 06:00:33;;;;;;;11.10;3.25;;;;;;;8.19;100.00;98306.94;7393686;19;20014;-60
2022/04/07 06:03:02;;;;;;;5.85;2.38;;;;;;;8.26;100.00;98291.69;7393496;19;20014;-59
2022/04/07 06:05:30;;;;;;;7.47;2.50;;;;;;;8.24;100.00;98297.00;7392613;19;20019;-58
2022/04/07 06:08:00;;;;;;;6.88;3.10;;;;;;;8.18;100.00;98283.59;7394709;19;20010;-59
2022/04/07 06:10:33;;;;;;;5.43;3.08;;;;;;;8.14;100.00;98283.00;7394391;19;20019;-57
2022/04/07 06:13:01;;;;;;;6.07;2.75;;;;;;;8.15;100.00;98266.38;7393385;19;20021;-57
2022/04/07 06:15:30;;;;;;;8.80;4.20;;;;;;;8.12;100.00;98269.25;7393147;19;20018;-57
2022/04/07 06:17:59;;;;;;;5.63;3.17;;;;;;;8.07;100.00;98264.38;7417114;19;20061;-59
2022/04/07 06:20:28;;;;;;;6.30;3.00;;;;;;;8.06;100.00;98262.69;7395781;19;20006;-56
2022/04/07 06:22:57;;;;;;;5.85;3.30;;;;;;;8.01;100.00;98251.81;7393446;19;20018;-57
2022/04/07 06:25:26;;;;;;;6.90;3.60;;;;;;;8.02;100.00;98236.97;7392393;19;20022;-56
2022/04/07 06:27:59;;;;;;;12.88;4.03;;;;;;;7.97;100.00;98251.19;7394190;19;20015;-57
2022/04/07 06:30:28;;;;;;;7.70;3.55;;;;;;;7.93;100.00;98249.75;7393672;19;20021;-58
2022/04/07 06:32:57;;;;;;;6.18;3.53;;;;;;;7.95;100.00;98247.03;7394703;19;20014;-56
2022/04/07 06:35:26;;;;;;;6.60;4.00;;;;;;;7.94;100.00;98225.34;7392615;19;20501;-55
2022/04/07 06:37:56;;;;;;;10.18;4.47;;;;;;;7.96;100.00;98235.66;7394188;19;20494;-56
2022/04/07 06:40:26;;;;;;;7.55;4.35;;;;;;;7.90;100.00;98226.53;7393783;19;20015;-56
2022/04/07 06:43:01;;;;;;;7.70;4.50;;;;;;;7.90;100.00;98228.31;7394124;19;20030;-57
2022/04/07 06:45:31;;;;;;;12.15;5.28;;;;;;;7.92;100.00;98244.66;7393863;19;20037;-58
2022/04/07 06:48:00;;;;;;;10.02;4.53;;;;;;;7.89;100.00;98237.06;7395140;19;20014;-53
2022/04/07 06:50:31;;;;;;;12.80;6.05;;;;;;;7.87;100.00;98228.53;7392867;19;20007;-58
2022/04/07 06:53:00;;;;;;;11.02;4.85;;;;;;;7.86;100.00;98201.63;7395167;19;20018;-57
2022/04/07 06:55:29;;;;;;;11.35;5.05;;;;;;;7.86;100.00;98226.88;7392195;19;20017;-54
2022/04/07 06:58:03;;;;;;;11.27;4.95;;;;;;;7.86;100.00;98212.06;7395223;19;20028;-54
2022/04/07 07:00:34;;;;;;;12.85;5.00;;;;;;;7.88;100.00;98241.47;7394519;19;20017;-56
2022/04/07 07:03:05;;;;;;;11.00;5.93;;;;;;;7.88;100.00;98249.28;7393496;19;20021;-53
2022/04/07 07:05:36;;;;;;;14.23;6.15;;;;;;;7.86;100.00;98264.19;7393695;19;20019;-57
2022/04/07 07:08:19;;;;;;;4.85;1.83;;;;;;;6.72;100.00;98269.75;7392997;19;20018;-53
2022/04/07 07:10:49;;;;;;;2.40;0.77;;;;;;;5.77;100.00;98287.38;7392556;19;20034;-54
2022/04/07 07:13:23;;;;;;;2.40;0.57;;;;;;;4.92;100.00;98274.59;7393304;19;20014;-56
2022/04/07 07:15:52;;;;;;;5.90;0.93;;;;;;;4.56;100.00;98268.13;7391541;19;20029;-52
2022/04/07 07:18:21;;;;;;;4.72;1.65;;;;;;;4.63;100.00;98259.06;7392515;19;20017;-55
2022/04/07 07:20:50;;;;;;;3.88;1.20;;;;;;;4.66;100.00;98284.81;7392127;19;20018;-57
2022/04/07 07:23:19;;;;;;;9.25;1.67;;;;;;;4.91;100.00;98278.91;7392462;19;20019;-56
2022/04/07 07:25:48;;;;;;;6.03;1.73;;;;;;;4.87;100.00;98267.06;7396655;19;20018;-59
2022/04/07 07:28:17;;;;;;;8.07;1.85;;;;;;;4.99;100.00;98281.06;7394643;19;20021;-59
2022/04/07 07:30:48;;;;;;;5.72;1.95;;;;;;;4.96;100.00;98270.88;7391679;19;20471;-59
2022/04/07 07:33:17;;;;;;;6.95;1.50;;;;;;;4.82;100.00;98254.38;7393766;19;20018;-59
2022/04/07 07:35:46;;;;;;;10.65;2.20;;;;;;;4.89;100.00;98248.81;7392937;19;20010;-54
2022/04/07 07:38:15;;;;;;;5.50;1.50;;;;;;;5.03;100.00;98248.78;7391398;19;20019;-56
2022/04/07 07:40:44;;;;;;;4.32;1.50;;;;;;;5.01;100.00;98240.25;7393014;19;20034;-60
2022/04/07 07:43:13;;;;;;;8.45;2.08;;;;;;;5.01;100.00;98233.31;7391445;19;20494;-58
2022/04/07 07:45:42;;;;;;;7.05;1.90;;;;;;;5.00;100.00;98215.22;7391815;19;20014;-54
2022/04/07 07:48:14;;;;;;;4.50;1.70;;;;;;;4.88;100.00;98196.09;7391982;19;20014;-58
2022/04/07 07:50:45;;;;;;;10.75;1.98;;;;;;;4.99;100.00;98198.00;7390311;19;20026;-57
2022/04/07 07:53:16;;;;;;;11.15;2.28;;;;;;;4.95;100.00;98199.94;7392091;19;20022;-60
2022/04/07 07:55:44;;;;;;;5.93;2.28;;;;;;;5.07;100.00;98203.53;7390937;19;20016;-59
2022/04/07 07:58:13;;;;;;;9.40;2.28;;;;;;;5.05;100.00;98208.00;7391363;19;20021;-55
2022/04/07 08:00:42;;;;;;;7.22;2.25;;;;;;;4.97;100.00;98229.25;7390189;19;20010;-58
2022/04/07 08:03:15;;;;;;;12.73;2.95;;;;;;;5.01;100.00;98227.28;7393758;19;20117;-54
2022/04/07 08:05:44;;;;;;;8.00;2.70;;;;;;;4.97;100.00;98244.81;7391814;19;20018;-61
2022/04/07 08:08:13;;;;;;;9.73;3.00;;;;;;;5.05;100.00;98236.53;7393068;19;20011;-55
2022/04/07 08:10:42;;;;;;;8.70;2.88;;;;;;;5.08;100.00;98238.94;7393180;19;20078;-59
2022/04/07 08:13:11;;;;;;;12.13;2.95;;;;;;;5.03;100.00;98225.44;7391782;19;20030;-60
2022/04/07 08:15:40;;;;;;;6.10;2.30;;;;;;;4.95;100.00;98231.09;7406865;19;20019;-54
2022/04/07 08:18:10;;;;;;;9.13;3.53;;;;;;;5.06;100.00;98219.19;7399705;19;20014;-59
2022/04/07 08:20:41;;;;;;;6.82;2.78;;;;;;;5.02;100.00;98203.81;7391506;19;20018;-60
2022/04/07 08:23:10;;;;;;;13.23;3.72;;;;;;;5.11;100.00;98199.81;7390850;19;20038;-60
2022/04/07 08:25:39;;;;;;;11.32;3.00;;;;;;;5.12;100.00;98174.69;7392690;19;20030;-61
2022/04/07 08:28:08;;;;;;;8.10;2.83;;;;;;;5.10;100.00;98163.56;7392631;19;20017;-55
2022/04/07 08:30:37;;;;;;;10.13;2.70;;;;;;;5.09;100.00;98169.72;7392851;19;20022;-57
2022/04/07 08:33:06;;;;;;;10.85;2.55;;;;;;;5.11;100.00;98175.63;7392289;19;20021;-59
2022/04/07 08:35:35;;;;;;;9.35;2.40;;;;;;;5.22;100.00;98188.75;7391863;19;20010;-59
2022/04/07 08:38:09;;;;;;;8.75;2.72;;;;;;;5.32;100.00;98179.41;7391141;19;20026;-58
2022/04/07 08:40:41;;;;;;;9.68;2.92;;;;;;;5.44;100.00;98159.59;7392054;19;20093;-61
2022/04/07 08:43:10;;;;;;;9.63;3.40;;;;;;;5.43;100.00;98144.97;7397943;19;20014;-56
2022/04/07 08:45:39;;;;;;;6.30;3.55;;;;;;;5.63;100.00;98154.03;7398540;19;20026;-57
2022/04/07 08:48:12;;;;;;;11.77;4.40;;;;;;;5.60;100.00;98153.38;7396634;19;20018;-59
2022/04/07 08:50:41;;;;;;;;;;;;;;;5.64;100.00;98141.88;7398947;19;20018;-57
2022/04/07 08:53:15;;;;;;;10.15;3.45;;;;;;;5.73;100.00;98143.81;7399840;19;20249;-59
2022/04/07 08:55:43;;;;;;;9.15;4.03;;;;;;;6.02;100.00;98149.69;7400287;19;20500;-61
2022/04/07 08:58:17;;;;;;;11.13;5.20;;;;;;;6.13;100.00;98148.09;7399905;19;20029;-63
2022/04/07 09:00:49;;;;;;;8.10;4.70;;;;;;;6.17;100.00;98152.16;7400582;19;20021;-59
2022/04/07 09:03:18;;;;;;;10.05;4.00;;;;;;;6.29;100.00;98160.88;7399644;19;20359;-61
2022/04/07 09:05:58;;;;;;;8.27;3.60;;;;;;;6.58;100.00;98164.88;7401651;19;20428;-60
2022/04/07 09:08:37;;;;;;;7.97;3.70;;;;;;;6.57;100.00;98170.19;7400190;19;20025;-60
2022/04/07 09:11:07;;;;;;;12.20;3.90;;;;;;;6.69;100.00;98161.53;7377967;19;20015;-62
2022/04/07 09:13:39;;;;;;;7.13;2.78;;;;;;;6.67;100.00;98165.16;7409439;19;20023;-61
2022/04/07 09:16:11;;;;;;;8.53;2.80;;;;;;;6.89;100.00;98164.44;7409960;19;20014;-61
2022/04/07 09:18:41;;;;;;;9.85;2.78;;;;;;;6.95;100.00;98161.41;7405081;19;20239;-61
2022/04/07 09:21:18;;;;;;;3.33;2.22;;;;;;;7.02;100.00;98172.19;7407618;19;20023;-61
2022/04/07 09:23:49;;;;;;;7.13;2.00;;;;;;;7.13;100.00;98154.03;7402186;19;20425;-61
2022/04/07 09:26:19;;;;;;;9.55;2.50;;;;;;;7.35;100.00;98168.94;7398271;19;20014;-60
2022/04/07 09:28:48;;;;;;;6.60;1.67;;;;;;;7.34;100.00;98161.22;7398191;19;20019;-61
2022/04/07 09:31:22;;;;;;;7.32;2.20;;;;;;;7.31;100.00;98158.81;7397677;19;20393;-63
2022/04/07 09:33:55;;;;;;;5.32;1.88;;;;;;;7.26;100.00;98173.03;7394268;19;20014;-61
2022/04/07 09:36:25;;;;;;;5.47;1.90;;;;;;;7.17;100.00;98173.69;7396149;19;20018;-59
2022/04/07 09:38:58;;;;;;;8.85;2.47;;;;;;;7.21;100.00;98166.50;7402143;19;20010;-61
2022/04/07 09:41:30;;;;;;;8.55;2.40;;;;;;;7.43;100.00;98176.16;7401550;19;20021;-61
2022/04/07 09:44:01;;;;;;;10.25;2.38;;;;;;;7.56;100.00;98182.13;7402732;19;20014;-61
2022/04/07 09:46:38;;;;;;;6.65;2.47;;;;;;;7.62;100.00;98171.25;7403813;19;20052;-61
2022/04/07 09:49:09;;;;;;;8.48;1.80;;;;;;;7.58;100.00;98167.22;7395523;19;20366;-61
2022/04/07 09:51:45;;;;;;;6.95;1.85;;;;;;;7.97;100.00;98167.75;7396128;19;20009;-62
2022/04/07 09:54:18;;;;;;;9.52;2.40;;;;;;;7.98;100.00;98145.13;7392594;19;20021;-59
2022/04/07 09:56:49;;;;;;;5.35;1.33;;;;;;;7.87;98.42;98151.16;7395628;19;20018;-61
2022/04/07 09:59:20;;;;;;;8.55;1.70;;;;;;;8.13;98.87;98163.97;7394862;19;20015;-59
2022/04/07 10:01:50;;;;;;;8.85;1.60;;;;;;;8.05;98.52;98143.72;7398336;19;20011;-59
2022/04/07 10:04:23;;;;;;;12.00;2.67;;;;;;;8.17;94.58;98152.34;7394286;19;20025;-62
2022/04/07 10:06:55;;;;;;;9.18;2.15;;;;;;;8.03;96.45;98152.59;7395140;19;20316;-61
2022/04/07 10:09:30;;;;;;;7.68;1.80;;;;;;;8.06;96.85;98160.16;7393272;19;20547;-61
2022/04/07 10:12:00;;;;;;;5.03;1.20;;;;;;;8.09;92.79;98170.38;7395725;19;20419;-57
2022/04/07 10:14:30;;;;;;;4.95;1.80;;;;;;;8.46;92.90;98160.53;7420465;19;20054;-61
2022/04/07 10:16:59;;;;;;;9.20;2.30;;;;;;;8.51;91.75;98139.31;7397246;19;20022;-60
2022/04/07 10:19:35;;;;;;;8.43;1.50;;;;;;;8.52;92.07;98156.63;7393389;19;20026;-62
2022/04/07 10:22:19;;;;;;;6.63;1.75;;;;;;;8.54;90.49;98161.72;7393671;19;20335;-62
2022/04/07 10:24:55;;;;;;;7.72;1.73;;;;;;;8.52;90.02;98150.56;7392374;19;20014;-62
2022/04/07 10:27:29;;;;;;;6.53;1.25;;;;;;;8.42;88.83;98158.25;7394171;19;20007;-61
2022/04/07 10:30:10;;;;;;;4.35;1.63;;;;;;;8.45;89.52;98166.72;7392821;19;20047;-60
2022/04/07 10:32:41;;;;;;;9.25;1.58;;;;;;;8.36;89.13;98156.16;7394979;19;20142;-59
2022/04/07 10:35:11;;;;;;;9.95;2.00;;;;;;;8.25;90.17;98173.47;7391456;19;20344;-59
2022/04/07 10:37:45;;;;;;;8.65;1.90;;;;;;;8.37;83.55;98171.69;7393593;19;20018;-60
2022/04/07 10:40:44;;;;;;;8.75;1.73;;;;;;;8.34;82.83;98163.25;7392561;19;20471;-58
2022/04/07 10:43:19;;;;;;;6.95;1.80;;;;;;;8.37;83.33;98165.59;7393378;19;20052;-61
2022/04/07 10:45:49;;;;;;;7.80;1.70;;;;;;;8.54;82.76;98167.78;7392744;19;20029;-64
2022/04/07 10:48:20;;;;;;;10.80;1.73;;;;;;;8.86;83.01;98198.34;7392904;19;20029;-64
2022/04/07 10:50:50;;;;;;;8.50;1.83;;;;;;;8.91;79.09;98213.63;7392446;19;20018;-62
2022/04/07 10:53:24;;;;;;;8.93;2.10;;;;;;;8.64;81.38;98204.44;7392534;19;20026;-62
2022/04/07 10:56:01;;;;;;;12.65;2.22;;;;;;;8.66;80.16;98197.31;7392636;19;20316;-61
2022/04/07 10:58:41;;;;;;;7.95;2.53;;;;;;;8.79;79.53;98208.44;7392443;19;20038;-60
2022/04/07 11:01:14;;;;;;;10.20;2.63;;;;;;;8.89;81.18;98203.31;7393409;19;20487;-62
2022/04/07 11:03:45;;;;;;;8.32;1.83;;;;;;;8.86;78.10;98203.56;7391082;19;20018;-61
2022/04/07 11:06:24;;;;;;;11.15;2.15;;;;;;;8.72;77.36;98225.53;7391880;19;20033;-61
2022/04/07 11:09:14;;;;;;;13.05;2.47;;;;;;;8.61;74.58;98228.16;7392314;19;20090;-60
2022/04/07 11:11:55;;;;;;;8.77;2.25;;;;;;;8.45;76.68;98191.97;7391451;19;20022;-62
2022/04/07 11:14:28;;;;;;;10.32;2.20;;;;;;;8.46;74.90;98219.75;7391060;19;20018;-61
2022/04/07 11:17:00;;;;;;;12.98;2.53;;;;;;;8.35;75.94;98243.19;7392171;19;20015;-59
2022/04/07 11:19:44;;;;;;;11.30;2.57;;;;;;;8.38;76.81;98241.19;7391176;19;20490;-60
2022/04/07 11:22:13;;;;;;;11.40;2.40;;;;;;;8.36;77.73;98237.03;7392203;19;20293;-56
2022/04/07 11:24:47;;;;;;;13.15;3.15;;;;;;;8.32;77.35;98236.41;7388846;19;20476;-60
2022/04/07 11:27:42;;;;;;;14.52;3.00;;;;;;;8.38;77.74;98242.94;7390413;19;20145;-61
2022/04/07 11:30:13;;;;;;;13.98;2.75;;;;;;;8.41;76.15;98260.97;7390161;19;20019;-60
2022/04/07 11:33:16;;;;;;;13.50;2.47;;;;;;;8.38;76.91;98256.84;7392846;19;20029;-61
2022/04/07 11:35:45;;;;;;;11.43;2.58;;;;;;;8.43;76.37;98248.66;7390467;19;20011;-60
2022/04/07 11:38:18;;;;;;;12.15;2.30;;;;;;;8.49;75.99;98243.81;7391412;19;20502;-58
2022/04/07 11:41:00;;;;;;;16.27;2.85;;;;;;;8.32;75.33;98268.56;7390466;19;20015;-60
2022/04/07 11:43:33;;;;;;;13.63;2.75;;;;;;;8.34;75.17;98247.59;7390670;19;21364;-60
2022/04/07 11:46:02;;;;;;;14.77;3.10;;;;;;;8.39;76.33;98255.06;7390625;19;20475;-59
2022/04/07 11:48:33;;;;;;;11.63;2.83;;;;;;;8.49;76.23;98261.25;7392387;19;20102;-60